sensor_id;sensor_type;location;lat;lon;timestamp;temperature;humidity
44647;DHT22;56315;-33.902;151.160;2023-02-10T00:01:45;33.50;99.90
44647;DHT22;56315;-33.902;151.160;2023-02-10T00:04:13;33.60;99.90
44647;DHT22;56315;-33.902;151.160;2023-02-10T00:06:40;33.80;99.90
44647;DHT22;56315;-33.902;151.160;2023-02-10T00:09:06;33.30;99.80
44647;DHT22;56315;-33.902;151.160;2023-02-10T00:11:33;33.50;99.50
44647;DHT22;56315;-33.902;151.160;2023-02-10T00:14:18;33.70;99.90
44647;DHT22;56315;-33.902;151.160;2023-02-10T00:16:45;33.20;99.90
44647;DHT22;56315;-33.902;151.160;2023-02-10T00:19:13;32.80;99.90
44647;DHT22;56315;-33.902;151.160;2023-02-10T00:21:39;32.50;99.90
44647;DHT22;56315;-33.902;151.160;2023-02-10T00:24:06;32.90;99.90
44647;DHT22;56315;-33.902;151.160;2023-02-10T00:26:33;33.20;99.90
44647;DHT22;56315;-33.902;151.160;2023-02-10T00:28:59;33.30;99.90
44647;DHT22;56315;-33.902;151.160;2023-02-10T00:31:26;33.50;99.90
44647;DHT22;56315;-33.902;151.160;2023-02-10T00:33:52;33.90;99.90
44647;DHT22;56315;-33.902;151.160;2023-02-10T00:36:19;33.50;99.40
44647;DHT22;56315;-33.902;151.160;2023-02-10T00:38:47;33.20;99.60
44647;DHT22;56315;-33.902;151.160;2023-02-10T00:41:18;33.10;99.70
44647;DHT22;56315;-33.902;151.160;2023-02-10T00:43:45;32.90;99.90
44647;DHT22;56315;-33.902;151.160;2023-02-10T00:46:12;33.00;99.80
44647;DHT22;56315;-33.902;151.160;2023-02-10T00:48:38;33.20;99.90
44647;DHT22;56315;-33.902;151.160;2023-02-10T00:51:05;33.20;99.90
44647;DHT22;56315;-33.902;151.160;2023-02-10T00:53:32;33.30;99.90
44647;DHT22;56315;-33.902;151.160;2023-02-10T00:55:59;33.50;99.80
44647;DHT22;56315;-33.902;151.160;2023-02-10T00:58:26;33.80;99.40
44647;DHT22;56315;-33.902;151.160;2023-02-10T01:00:53;34.00;99.90
44647;DHT22;56315;-33.902;151.160;2023-02-10T01:03:20;33.70;99.40
44647;DHT22;56315;-33.902;151.160;2023-02-10T01:05:47;33.70;99.90
44647;DHT22;56315;-33.902;151.160;2023-02-10T01:08:13;33.80;98.70
44647;DHT22;56315;-33.902;151.160;2023-02-10T01:10:40;33.80;99.10
44647;DHT22;56315;-33.902;151.160;2023-02-10T01:13:08;33.80;98.70
44647;DHT22;56315;-33.902;151.160;2023-02-10T01:15:34;33.70;99.00
44647;DHT22;56315;-33.902;151.160;2023-02-10T01:18:01;33.90;98.00
44647;DHT22;56315;-33.902;151.160;2023-02-10T01:20:28;33.90;98.90
44647;DHT22;56315;-33.902;151.160;2023-02-10T01:22:54;34.00;98.10
44647;DHT22;56315;-33.902;151.160;2023-02-10T01:25:21;34.00;98.60
44647;DHT22;56315;-33.902;151.160;2023-02-10T01:27:47;34.10;99.40
44647;DHT22;56315;-33.902;151.160;2023-02-10T01:30:14;34.30;98.30
44647;DHT22;56315;-33.902;151.160;2023-02-10T01:32:41;34.20;97.40
44647;DHT22;56315;-33.902;151.160;2023-02-10T01:35:07;34.20;97.10
44647;DHT22;56315;-33.902;151.160;2023-02-10T01:37:34;34.30;97.30
44647;DHT22;56315;-33.902;151.160;2023-02-10T01:40:03;34.20;96.90
44647;DHT22;56315;-33.902;151.160;2023-02-10T01:42:30;34.40;96.90
44647;DHT22;56315;-33.902;151.160;2023-02-10T01:45:10;34.40;97.40
44647;DHT22;56315;-33.902;151.160;2023-02-10T01:47:38;34.50;97.80
44647;DHT22;56315;-33.902;151.160;2023-02-10T01:50:05;34.70;98.10
44647;DHT22;56315;-33.902;151.160;2023-02-10T01:52:32;34.70;97.90
44647;DHT22;56315;-33.902;151.160;2023-02-10T01:55:03;34.80;96.90
44647;DHT22;56315;-33.902;151.160;2023-02-10T01:57:31;34.40;96.90
44647;DHT22;56315;-33.902;151.160;2023-02-10T01:59:58;34.20;97.00
44647;DHT22;56315;-33.902;151.160;2023-02-10T02:02:26;34.00;97.00
44647;DHT22;56315;-33.902;151.160;2023-02-10T02:04:54;34.00;97.20
44647;DHT22;56315;-33.902;151.160;2023-02-10T02:07:25;34.00;98.00
44647;DHT22;56315;-33.902;151.160;2023-02-10T02:09:52;33.70;96.30
44647;DHT22;56315;-33.902;151.160;2023-02-10T02:12:43;33.20;97.50
44647;DHT22;56315;-33.902;151.160;2023-02-10T02:15:27;33.00;96.90
44647;DHT22;56315;-33.902;151.160;2023-02-10T02:18:02;33.00;97.30
44647;DHT22;56315;-33.902;151.160;2023-02-10T02:23:10;33.30;98.50
44647;DHT22;56315;-33.902;151.160;2023-02-10T02:33:17;34.00;95.40
44647;DHT22;56315;-33.902;151.160;2023-02-10T02:35:51;33.90;94.60
44647;DHT22;56315;-33.902;151.160;2023-02-10T02:38:19;33.60;95.70
44647;DHT22;56315;-33.902;151.160;2023-02-10T02:40:45;33.50;96.10
44647;DHT22;56315;-33.902;151.160;2023-02-10T02:43:12;33.50;95.30
44647;DHT22;56315;-33.902;151.160;2023-02-10T02:59:18;33.50;97.20
44647;DHT22;56315;-33.902;151.160;2023-02-10T03:01:51;33.50;98.30
44647;DHT22;56315;-33.902;151.160;2023-02-10T03:04:20;33.70;97.10
44647;DHT22;56315;-33.902;151.160;2023-02-10T03:06:47;33.80;96.40
44647;DHT22;56315;-33.902;151.160;2023-02-10T03:09:14;33.70;95.70
44647;DHT22;56315;-33.902;151.160;2023-02-10T03:11:40;33.70;96.90
44647;DHT22;56315;-33.902;151.160;2023-02-10T03:14:07;33.50;97.20
44647;DHT22;56315;-33.902;151.160;2023-02-10T03:16:34;33.40;97.00
44647;DHT22;56315;-33.902;151.160;2023-02-10T03:19:00;33.40;97.40
44647;DHT22;56315;-33.902;151.160;2023-02-10T03:21:27;33.40;97.50
44647;DHT22;56315;-33.902;151.160;2023-02-10T03:23:53;33.50;97.50
44647;DHT22;56315;-33.902;151.160;2023-02-10T03:26:20;33.40;98.60
44647;DHT22;56315;-33.902;151.160;2023-02-10T03:28:46;33.30;98.70
44647;DHT22;56315;-33.902;151.160;2023-02-10T03:31:13;33.20;99.20
44647;DHT22;56315;-33.902;151.160;2023-02-10T03:33:40;33.00;98.70
44647;DHT22;56315;-33.902;151.160;2023-02-10T03:36:07;33.00;99.30
44647;DHT22;56315;-33.902;151.160;2023-02-10T03:38:33;32.90;99.10
44647;DHT22;56315;-33.902;151.160;2023-02-10T03:41:00;32.90;99.40
44647;DHT22;56315;-33.902;151.160;2023-02-10T03:43:26;32.80;99.20
44647;DHT22;56315;-33.902;151.160;2023-02-10T03:45:53;32.80;99.40
44647;DHT22;56315;-33.902;151.160;2023-02-10T03:48:20;32.80;99.90
44647;DHT22;56315;-33.902;151.160;2023-02-10T03:50:48;32.80;99.00
44647;DHT22;56315;-33.902;151.160;2023-02-10T03:53:14;32.70;99.40
44647;DHT22;56315;-33.902;151.160;2023-02-10T03:55:41;32.50;98.80
44647;DHT22;56315;-33.902;151.160;2023-02-10T03:58:07;32.40;98.80
44647;DHT22;56315;-33.902;151.160;2023-02-10T04:00:34;32.20;99.40
44647;DHT22;56315;-33.902;151.160;2023-02-10T04:03:01;32.00;99.30
44647;DHT22;56315;-33.902;151.160;2023-02-10T04:05:27;31.90;99.90
44647;DHT22;56315;-33.902;151.160;2023-02-10T04:07:54;31.90;99.90
44647;DHT22;56315;-33.902;151.160;2023-02-10T04:10:20;31.90;99.70
44647;DHT22;56315;-33.902;151.160;2023-02-10T04:12:47;31.80;99.60
44647;DHT22;56315;-33.902;151.160;2023-02-10T04:15:14;31.60;99.90
44647;DHT22;56315;-33.902;151.160;2023-02-10T04:17:41;31.40;99.90
44647;DHT22;56315;-33.902;151.160;2023-02-10T04:20:08;31.40;99.90
44647;DHT22;56315;-33.902;151.160;2023-02-10T04:22:34;31.40;99.90
44647;DHT22;56315;-33.902;151.160;2023-02-10T04:25:01;31.40;99.90
44647;DHT22;56315;-33.902;151.160;2023-02-10T04:27:28;31.30;99.90
44647;DHT22;56315;-33.902;151.160;2023-02-10T04:29:55;31.10;99.90
44647;DHT22;56315;-33.902;151.160;2023-02-10T04:32:21;31.00;99.90
44647;DHT22;56315;-33.902;151.160;2023-02-10T04:34:48;31.00;99.90
44647;DHT22;56315;-33.902;151.160;2023-02-10T04:37:15;31.00;99.90
44647;DHT22;56315;-33.902;151.160;2023-02-10T04:39:41;31.00;99.90
44647;DHT22;56315;-33.902;151.160;2023-02-10T04:42:08;31.10;99.90
44647;DHT22;56315;-33.902;151.160;2023-02-10T04:44:35;31.10;99.90
44647;DHT22;56315;-33.902;151.160;2023-02-10T04:47:01;30.90;99.90
44647;DHT22;56315;-33.902;151.160;2023-02-10T04:49:28;30.80;99.90
44647;DHT22;56315;-33.902;151.160;2023-02-10T04:51:55;30.60;99.90
44647;DHT22;56315;-33.902;151.160;2023-02-10T04:54:21;30.40;99.90
44647;DHT22;56315;-33.902;151.160;2023-02-10T04:56:48;30.40;99.90
44647;DHT22;56315;-33.902;151.160;2023-02-10T04:59:15;30.30;99.90
44647;DHT22;56315;-33.902;151.160;2023-02-10T05:01:41;30.30;99.90
44647;DHT22;56315;-33.902;151.160;2023-02-10T05:04:08;30.20;99.90
44647;DHT22;56315;-33.902;151.160;2023-02-10T05:06:35;30.10;99.90
44647;DHT22;56315;-33.902;151.160;2023-02-10T05:09:02;29.90;99.90
44647;DHT22;56315;-33.902;151.160;2023-02-10T05:11:29;29.90;99.90
44647;DHT22;56315;-33.902;151.160;2023-02-10T05:13:55;29.90;99.90
44647;DHT22;56315;-33.902;151.160;2023-02-10T05:16:22;29.90;99.90
44647;DHT22;56315;-33.902;151.160;2023-02-10T05:18:49;29.70;99.90
44647;DHT22;56315;-33.902;151.160;2023-02-10T05:21:15;29.50;99.90
44647;DHT22;56315;-33.902;151.160;2023-02-10T05:23:42;29.40;99.90
44647;DHT22;56315;-33.902;151.160;2023-02-10T05:26:08;29.20;99.90
44647;DHT22;56315;-33.902;151.160;2023-02-10T05:28:35;29.10;99.90
44647;DHT22;56315;-33.902;151.160;2023-02-10T05:31:02;29.00;99.90
44647;DHT22;56315;-33.902;151.160;2023-02-10T05:33:32;28.90;99.90
44647;DHT22;56315;-33.902;151.160;2023-02-10T05:36:00;28.90;99.90
44647;DHT22;56315;-33.902;151.160;2023-02-10T05:38:26;28.80;99.90
44647;DHT22;56315;-33.902;151.160;2023-02-10T05:40:53;28.70;99.90
44647;DHT22;56315;-33.902;151.160;2023-02-10T05:43:20;28.60;99.90
44647;DHT22;56315;-33.902;151.160;2023-02-10T05:45:46;28.60;99.90
44647;DHT22;56315;-33.902;151.160;2023-02-10T05:48:13;28.70;99.90
44647;DHT22;56315;-33.902;151.160;2023-02-10T05:50:40;28.70;99.90
44647;DHT22;56315;-33.902;151.160;2023-02-10T05:53:07;28.80;99.90
44647;DHT22;56315;-33.902;151.160;2023-02-10T05:55:35;28.70;99.90
44647;DHT22;56315;-33.902;151.160;2023-02-10T05:58:01;28.70;99.90
44647;DHT22;56315;-33.902;151.160;2023-02-10T06:00:28;28.60;99.90
44647;DHT22;56315;-33.902;151.160;2023-02-10T06:02:54;28.50;99.90
44647;DHT22;56315;-33.902;151.160;2023-02-10T06:05:21;28.40;99.90
44647;DHT22;56315;-33.902;151.160;2023-02-10T06:07:48;28.30;99.90
44647;DHT22;56315;-33.902;151.160;2023-02-10T06:10:15;28.30;99.90
44647;DHT22;56315;-33.902;151.160;2023-02-10T06:12:41;28.10;99.90
44647;DHT22;56315;-33.902;151.160;2023-02-10T06:15:08;28.10;99.90
44647;DHT22;56315;-33.902;151.160;2023-02-10T06:17:34;28.00;99.90
44647;DHT22;56315;-33.902;151.160;2023-02-10T06:20:01;27.90;99.90
44647;DHT22;56315;-33.902;151.160;2023-02-10T06:22:28;27.90;99.90
44647;DHT22;56315;-33.902;151.160;2023-02-10T06:29:59;27.90;99.90
44647;DHT22;56315;-33.902;151.160;2023-02-10T06:32:26;27.80;99.90
44647;DHT22;56315;-33.902;151.160;2023-02-10T06:34:52;27.80;99.90
44647;DHT22;56315;-33.902;151.160;2023-02-10T06:37:19;27.70;99.90
44647;DHT22;56315;-33.902;151.160;2023-02-10T06:39:46;27.70;99.90
44647;DHT22;56315;-33.902;151.160;2023-02-10T06:42:12;27.60;99.90
44647;DHT22;56315;-33.902;151.160;2023-02-10T06:44:39;27.60;99.90
44647;DHT22;56315;-33.902;151.160;2023-02-10T06:47:06;27.60;99.90
44647;DHT22;56315;-33.902;151.160;2023-02-10T06:49:32;27.40;99.90
44647;DHT22;56315;-33.902;151.160;2023-02-10T06:51:59;27.40;99.90
44647;DHT22;56315;-33.902;151.160;2023-02-10T06:54:25;27.40;99.90
44647;DHT22;56315;-33.902;151.160;2023-02-10T06:56:52;27.20;99.90
44647;DHT22;56315;-33.902;151.160;2023-02-10T06:59:18;27.20;99.90
44647;DHT22;56315;-33.902;151.160;2023-02-10T07:01:46;27.10;99.90
44647;DHT22;56315;-33.902;151.160;2023-02-10T07:04:13;27.10;99.90
44647;DHT22;56315;-33.902;151.160;2023-02-10T07:06:40;27.00;99.90
44647;DHT22;56315;-33.902;151.160;2023-02-10T07:09:06;27.00;99.90
44647;DHT22;56315;-33.902;151.160;2023-02-10T07:11:33;26.90;99.90
44647;DHT22;56315;-33.902;151.160;2023-02-10T07:14:00;26.80;99.90
44647;DHT22;56315;-33.902;151.160;2023-02-10T07:16:27;26.80;99.90
44647;DHT22;56315;-33.902;151.160;2023-02-10T07:18:55;26.80;99.90
44647;DHT22;56315;-33.902;151.160;2023-02-10T07:21:22;26.80;99.90
44647;DHT22;56315;-33.902;151.160;2023-02-10T07:23:49;26.80;99.90
44647;DHT22;56315;-33.902;151.160;2023-02-10T07:26:15;26.80;99.90
44647;DHT22;56315;-33.902;151.160;2023-02-10T07:28:44;26.80;99.90
44647;DHT22;56315;-33.902;151.160;2023-02-10T07:31:11;26.80;99.90
44647;DHT22;56315;-33.902;151.160;2023-02-10T07:33:37;26.60;99.90
44647;DHT22;56315;-33.902;151.160;2023-02-10T07:36:04;26.60;99.90
44647;DHT22;56315;-33.902;151.160;2023-02-10T07:38:31;26.50;99.90
44647;DHT22;56315;-33.902;151.160;2023-02-10T07:40:58;26.40;99.90
44647;DHT22;56315;-33.902;151.160;2023-02-10T07:43:25;26.40;99.90
44647;DHT22;56315;-33.902;151.160;2023-02-10T07:45:51;26.40;99.90
44647;DHT22;56315;-33.902;151.160;2023-02-10T07:48:18;26.30;99.90
44647;DHT22;56315;-33.902;151.160;2023-02-10T07:50:46;26.30;99.90
44647;DHT22;56315;-33.902;151.160;2023-02-10T07:53:13;26.30;99.90
44647;DHT22;56315;-33.902;151.160;2023-02-10T07:55:39;26.20;99.90
44647;DHT22;56315;-33.902;151.160;2023-02-10T07:58:06;26.20;99.90
44647;DHT22;56315;-33.902;151.160;2023-02-10T08:00:33;26.10;99.90
44647;DHT22;56315;-33.902;151.160;2023-02-10T08:03:00;26.10;99.90
44647;DHT22;56315;-33.902;151.160;2023-02-10T08:05:26;26.10;99.90
44647;DHT22;56315;-33.902;151.160;2023-02-10T08:07:54;26.10;99.90
44647;DHT22;56315;-33.902;151.160;2023-02-10T08:10:21;26.00;99.90
44647;DHT22;56315;-33.902;151.160;2023-02-10T08:12:47;26.00;99.90
44647;DHT22;56315;-33.902;151.160;2023-02-10T08:15:14;26.00;99.90
44647;DHT22;56315;-33.902;151.160;2023-02-10T08:17:44;26.00;99.90
44647;DHT22;56315;-33.902;151.160;2023-02-10T08:20:11;26.00;99.90
44647;DHT22;56315;-33.902;151.160;2023-02-10T08:22:37;26.00;99.90
44647;DHT22;56315;-33.902;151.160;2023-02-10T08:25:04;26.00;99.90
44647;DHT22;56315;-33.902;151.160;2023-02-10T08:27:31;26.00;99.90
44647;DHT22;56315;-33.902;151.160;2023-02-10T08:29:57;26.00;99.90
44647;DHT22;56315;-33.902;151.160;2023-02-10T08:32:24;26.00;99.90
44647;DHT22;56315;-33.902;151.160;2023-02-10T08:34:51;26.10;99.90
44647;DHT22;56315;-33.902;151.160;2023-02-10T08:37:18;26.20;99.90
44647;DHT22;56315;-33.902;151.160;2023-02-10T08:39:45;26.30;99.90
44647;DHT22;56315;-33.902;151.160;2023-02-10T08:42:12;26.30;99.90
44647;DHT22;56315;-33.902;151.160;2023-02-10T08:44:38;26.30;99.90
44647;DHT22;56315;-33.902;151.160;2023-02-10T08:47:05;26.20;99.90
44647;DHT22;56315;-33.902;151.160;2023-02-10T08:49:31;26.20;99.90
44647;DHT22;56315;-33.902;151.160;2023-02-10T08:51:58;26.10;99.90
44647;DHT22;56315;-33.902;151.160;2023-02-10T08:54:26;26.00;99.90
44647;DHT22;56315;-33.902;151.160;2023-02-10T08:56:53;25.90;99.90
44647;DHT22;56315;-33.902;151.160;2023-02-10T08:59:20;25.80;99.90
44647;DHT22;56315;-33.902;151.160;2023-02-10T09:01:46;25.70;99.90
44647;DHT22;56315;-33.902;151.160;2023-02-10T09:04:13;25.60;99.90
44647;DHT22;56315;-33.902;151.160;2023-02-10T09:06:39;25.40;99.90
44647;DHT22;56315;-33.902;151.160;2023-02-10T09:09:09;25.30;99.90
44647;DHT22;56315;-33.902;151.160;2023-02-10T09:11:36;25.10;99.90
44647;DHT22;56315;-33.902;151.160;2023-02-10T09:14:04;25.10;99.90
44647;DHT22;56315;-33.902;151.160;2023-02-10T09:16:30;24.90;99.90
44647;DHT22;56315;-33.902;151.160;2023-02-10T09:18:57;24.80;99.90
44647;DHT22;56315;-33.902;151.160;2023-02-10T09:21:24;24.70;99.90
44647;DHT22;56315;-33.902;151.160;2023-02-10T09:23:51;24.70;99.90
44647;DHT22;56315;-33.902;151.160;2023-02-10T09:26:17;24.70;99.90
44647;DHT22;56315;-33.902;151.160;2023-02-10T09:28:44;24.50;99.90
44647;DHT22;56315;-33.902;151.160;2023-02-10T09:31:12;24.50;99.90
44647;DHT22;56315;-33.902;151.160;2023-02-10T09:33:39;24.40;99.90
44647;DHT22;56315;-33.902;151.160;2023-02-10T09:36:06;24.40;99.90
44647;DHT22;56315;-33.902;151.160;2023-02-10T09:38:34;24.30;99.90
44647;DHT22;56315;-33.902;151.160;2023-02-10T09:54:01;24.00;99.90
44647;DHT22;56315;-33.902;151.160;2023-02-10T09:56:28;24.00;99.90
44647;DHT22;56315;-33.902;151.160;2023-02-10T09:58:56;24.00;99.90
44647;DHT22;56315;-33.902;151.160;2023-02-10T10:01:35;24.00;99.90
44647;DHT22;56315;-33.902;151.160;2023-02-10T10:04:13;24.10;99.90
44647;DHT22;56315;-33.902;151.160;2023-02-10T10:06:41;24.10;99.90
44647;DHT22;56315;-33.902;151.160;2023-02-10T10:11:45;24.00;99.90
44647;DHT22;56315;-33.902;151.160;2023-02-10T10:14:17;24.10;99.90
44647;DHT22;56315;-33.902;151.160;2023-02-10T10:16:57;24.10;99.90
44647;DHT22;56315;-33.902;151.160;2023-02-10T10:19:47;24.10;99.90
44647;DHT22;56315;-33.902;151.160;2023-02-10T10:22:25;24.10;99.90
44647;DHT22;56315;-33.902;151.160;2023-02-10T10:30:02;24.00;99.90
44647;DHT22;56315;-33.902;151.160;2023-02-10T10:34:58;24.00;99.90
44647;DHT22;56315;-33.902;151.160;2023-02-10T10:37:27;24.00;99.90
44647;DHT22;56315;-33.902;151.160;2023-02-10T10:40:04;24.00;99.90
44647;DHT22;56315;-33.902;151.160;2023-02-10T10:42:47;24.00;99.90
44647;DHT22;56315;-33.902;151.160;2023-02-10T10:45:34;23.90;99.90
44647;DHT22;56315;-33.902;151.160;2023-02-10T10:50:31;23.90;99.90
44647;DHT22;56315;-33.902;151.160;2023-02-10T10:52:58;23.90;99.90
44647;DHT22;56315;-33.902;151.160;2023-02-10T10:55:41;23.80;99.90
44647;DHT22;56315;-33.902;151.160;2023-02-10T11:00:54;23.80;99.90
44647;DHT22;56315;-33.902;151.160;2023-02-10T11:03:21;23.70;99.90
44647;DHT22;56315;-33.902;151.160;2023-02-10T11:08:35;23.80;99.90
44647;DHT22;56315;-33.902;151.160;2023-02-10T11:11:04;23.70;99.90
44647;DHT22;56315;-33.902;151.160;2023-02-10T11:13:36;23.60;99.90
44647;DHT22;56315;-33.902;151.160;2023-02-10T11:16:05;23.60;99.90
44647;DHT22;56315;-33.902;151.160;2023-02-10T11:18:32;23.60;99.90
44647;DHT22;56315;-33.902;151.160;2023-02-10T11:21:00;23.60;99.90
44647;DHT22;56315;-33.902;151.160;2023-02-10T11:23:27;23.50;99.90
44647;DHT22;56315;-33.902;151.160;2023-02-10T11:26:04;23.50;99.90
44647;DHT22;56315;-33.902;151.160;2023-02-10T11:28:34;23.50;99.90
44647;DHT22;56315;-33.902;151.160;2023-02-10T11:31:12;23.40;99.90
44647;DHT22;56315;-33.902;151.160;2023-02-10T11:33:43;23.40;99.90
44647;DHT22;56315;-33.902;151.160;2023-02-10T11:36:27;23.50;99.90
44647;DHT22;56315;-33.902;151.160;2023-02-10T11:39:02;23.40;99.90
44647;DHT22;56315;-33.902;151.160;2023-02-10T11:41:29;23.30;99.90
44647;DHT22;56315;-33.902;151.160;2023-02-10T11:43:56;23.30;99.90
44647;DHT22;56315;-33.902;151.160;2023-02-10T11:46:24;23.20;99.90
44647;DHT22;56315;-33.902;151.160;2023-02-10T11:48:51;23.20;99.90
44647;DHT22;56315;-33.902;151.160;2023-02-10T11:51:18;23.10;99.90
44647;DHT22;56315;-33.902;151.160;2023-02-10T11:53:46;23.00;99.90
44647;DHT22;56315;-33.902;151.160;2023-02-10T11:56:15;22.90;99.90
44647;DHT22;56315;-33.902;151.160;2023-02-10T11:58:50;22.90;99.90
44647;DHT22;56315;-33.902;151.160;2023-02-10T12:06:36;22.60;99.90
44647;DHT22;56315;-33.902;151.160;2023-02-10T12:09:15;22.60;99.90
44647;DHT22;56315;-33.902;151.160;2023-02-10T12:11:57;22.60;99.90
44647;DHT22;56315;-33.902;151.160;2023-02-10T12:24:40;22.40;99.90
44647;DHT22;56315;-33.902;151.160;2023-02-10T12:35:00;22.10;99.90
44647;DHT22;56315;-33.902;151.160;2023-02-10T12:40:20;22.00;99.90
44647;DHT22;56315;-33.902;151.160;2023-02-10T12:51:02;21.90;99.90
44647;DHT22;56315;-33.902;151.160;2023-02-10T12:53:33;21.90;99.90
44647;DHT22;56315;-33.902;151.160;2023-02-10T12:58:56;21.80;99.90
44647;DHT22;56315;-33.902;151.160;2023-02-10T13:01:28;21.70;99.90
44647;DHT22;56315;-33.902;151.160;2023-02-10T13:04:41;21.60;99.90
44647;DHT22;56315;-33.902;151.160;2023-02-10T13:06:44;21.60;99.90
44647;DHT22;56315;-33.902;151.160;2023-02-10T13:11:41;21.70;99.90
44647;DHT22;56315;-33.902;151.160;2023-02-10T13:14:13;21.60;99.90
44647;DHT22;56315;-33.902;151.160;2023-02-10T13:16:40;21.60;99.90
44647;DHT22;56315;-33.902;151.160;2023-02-10T13:30:13;21.40;99.90
44647;DHT22;56315;-33.902;151.160;2023-02-10T13:33:01;21.30;99.90
44647;DHT22;56315;-33.902;151.160;2023-02-10T13:35:30;21.30;99.90
44647;DHT22;56315;-33.902;151.160;2023-02-10T13:37:58;21.30;99.90
44647;DHT22;56315;-33.902;151.160;2023-02-10T13:42:54;21.30;99.90
44647;DHT22;56315;-33.902;151.160;2023-02-10T13:45:26;21.30;99.90
44647;DHT22;56315;-33.902;151.160;2023-02-10T13:50:21;21.20;99.90
44647;DHT22;56315;-33.902;151.160;2023-02-10T13:57:56;21.30;99.90
44647;DHT22;56315;-33.902;151.160;2023-02-10T14:00:29;21.20;99.90
44647;DHT22;56315;-33.902;151.160;2023-02-10T14:05:36;21.10;99.90
44647;DHT22;56315;-33.902;151.160;2023-02-10T14:08:25;21.00;99.90
44647;DHT22;56315;-33.902;151.160;2023-02-10T14:11:05;21.00;99.90
44647;DHT22;56315;-33.902;151.160;2023-02-10T14:13:35;21.00;99.90
44647;DHT22;56315;-33.902;151.160;2023-02-10T14:16:07;21.00;99.90
44647;DHT22;56315;-33.902;151.160;2023-02-10T14:18:57;21.00;99.90
44647;DHT22;56315;-33.902;151.160;2023-02-10T14:21:23;21.00;99.90
44647;DHT22;56315;-33.902;151.160;2023-02-10T14:23:54;21.00;99.90
44647;DHT22;56315;-33.902;151.160;2023-02-10T14:26:22;21.00;99.90
44647;DHT22;56315;-33.902;151.160;2023-02-10T14:28:51;20.90;99.90
44647;DHT22;56315;-33.902;151.160;2023-02-10T14:31:26;20.90;99.90
44647;DHT22;56315;-33.902;151.160;2023-02-10T14:33:56;20.90;99.90
44647;DHT22;56315;-33.902;151.160;2023-02-10T14:36:23;20.80;99.90
44647;DHT22;56315;-33.902;151.160;2023-02-10T14:38:56;20.70;99.90
44647;DHT22;56315;-33.902;151.160;2023-02-10T14:41:23;20.70;99.90
44647;DHT22;56315;-33.902;151.160;2023-02-10T14:43:51;20.70;99.90
44647;DHT22;56315;-33.902;151.160;2023-02-10T14:46:26;20.70;99.90
44647;DHT22;56315;-33.902;151.160;2023-02-10T14:49:00;20.70;99.90
44647;DHT22;56315;-33.902;151.160;2023-02-10T14:51:27;20.70;99.90
44647;DHT22;56315;-33.902;151.160;2023-02-10T14:53:55;20.70;99.90
44647;DHT22;56315;-33.902;151.160;2023-02-10T14:56:26;20.70;99.90
44647;DHT22;56315;-33.902;151.160;2023-02-10T14:58:53;20.60;99.90
44647;DHT22;56315;-33.902;151.160;2023-02-10T15:03:52;20.60;99.90
44647;DHT22;56315;-33.902;151.160;2023-02-10T15:06:20;20.50;99.90
44647;DHT22;56315;-33.902;151.160;2023-02-10T15:11:25;20.50;99.90
44647;DHT22;56315;-33.902;151.160;2023-02-10T15:14:20;20.50;99.90
44647;DHT22;56315;-33.902;151.160;2023-02-10T15:16:48;20.60;99.90
44647;DHT22;56315;-33.902;151.160;2023-02-10T15:19:16;20.60;99.90
44647;DHT22;56315;-33.902;151.160;2023-02-10T15:21:44;20.50;99.90
44647;DHT22;56315;-33.902;151.160;2023-02-10T15:27:16;20.40;99.90
44647;DHT22;56315;-33.902;151.160;2023-02-10T15:29:43;20.40;99.90
44647;DHT22;56315;-33.902;151.160;2023-02-10T15:32:17;20.40;99.90
44647;DHT22;56315;-33.902;151.160;2023-02-10T15:34:44;20.40;99.90
44647;DHT22;56315;-33.902;151.160;2023-02-10T15:37:17;20.30;99.90
44647;DHT22;56315;-33.902;151.160;2023-02-10T15:39:54;20.30;99.90
44647;DHT22;56315;-33.902;151.160;2023-02-10T15:42:21;20.20;99.90
44647;DHT22;56315;-33.902;151.160;2023-02-10T15:44:59;20.20;99.90
44647;DHT22;56315;-33.902;151.160;2023-02-10T15:47:36;20.20;99.90
44647;DHT22;56315;-33.902;151.160;2023-02-10T15:50:03;20.20;99.90
44647;DHT22;56315;-33.902;151.160;2023-02-10T15:52:33;20.10;99.90
44647;DHT22;56315;-33.902;151.160;2023-02-10T15:55:05;20.10;99.90
44647;DHT22;56315;-33.902;151.160;2023-02-10T15:57:32;20.20;99.90
44647;DHT22;56315;-33.902;151.160;2023-02-10T15:59:59;20.30;99.90
44647;DHT22;56315;-33.902;151.160;2023-02-10T16:02:26;20.30;99.90
44647;DHT22;56315;-33.902;151.160;2023-02-10T16:04:53;20.40;99.90
44647;DHT22;56315;-33.902;151.160;2023-02-10T16:07:21;20.50;99.90
44647;DHT22;56315;-33.902;151.160;2023-02-10T16:09:49;20.50;99.90
44647;DHT22;56315;-33.902;151.160;2023-02-10T16:12:16;20.60;99.90
44647;DHT22;56315;-33.902;151.160;2023-02-10T16:14:43;20.70;99.90
44647;DHT22;56315;-33.902;151.160;2023-02-10T16:17:10;20.80;99.90
44647;DHT22;56315;-33.902;151.160;2023-02-10T16:19:40;20.80;99.90
44647;DHT22;56315;-33.902;151.160;2023-02-10T16:22:08;20.80;99.90
44647;DHT22;56315;-33.902;151.160;2023-02-10T16:24:35;20.80;99.90
44647;DHT22;56315;-33.902;151.160;2023-02-10T16:27:02;20.80;99.90
44647;DHT22;56315;-33.902;151.160;2023-02-10T16:29:29;20.80;99.90
44647;DHT22;56315;-33.902;151.160;2023-02-10T16:31:56;20.80;99.90
44647;DHT22;56315;-33.902;151.160;2023-02-10T16:34:25;20.80;99.90
44647;DHT22;56315;-33.902;151.160;2023-02-10T16:36:55;20.80;99.90
44647;DHT22;56315;-33.902;151.160;2023-02-10T16:39:22;20.80;99.90
44647;DHT22;56315;-33.902;151.160;2023-02-10T16:41:51;20.70;99.90
44647;DHT22;56315;-33.902;151.160;2023-02-10T16:44:17;20.70;99.90
44647;DHT22;56315;-33.902;151.160;2023-02-10T16:46:44;20.70;99.90
44647;DHT22;56315;-33.902;151.160;2023-02-10T16:49:15;20.70;99.90
44647;DHT22;56315;-33.902;151.160;2023-02-10T16:51:42;20.60;99.90
44647;DHT22;56315;-33.902;151.160;2023-02-10T16:54:12;20.60;99.90
44647;DHT22;56315;-33.902;151.160;2023-02-10T16:56:40;20.60;99.90
44647;DHT22;56315;-33.902;151.160;2023-02-10T16:59:07;20.60;99.90
44647;DHT22;56315;-33.902;151.160;2023-02-10T17:01:34;20.50;99.90
44647;DHT22;56315;-33.902;151.160;2023-02-10T17:04:01;20.40;99.90
44647;DHT22;56315;-33.902;151.160;2023-02-10T17:06:28;20.40;99.90
44647;DHT22;56315;-33.902;151.160;2023-02-10T17:08:56;20.30;99.90